Map

Track Data

SID SEASON NUMBER BASIN SUBBASIN NAME ISO_TIME NATURE LAT LON WMO_WIND WMO_PRES WMO_AGENCY TRACK_TYPE DIST2LAND LANDFALL IFLAG USA_AGENCY USA_ATCF_ID USA_LAT USA_LON USA_RECORD USA_STATUS USA_WIND USA_PRES USA_SSHS USA_R34_NE USA_R34_SE USA_R34_SW USA_R34_NW USA_R50_NE USA_R50_SE USA_R50_SW USA_R50_NW USA_R64_NE USA_R64_SE USA_R64_SW USA_R64_NW USA_POCI USA_ROCI USA_RMW USA_EYE TOKYO_LAT TOKYO_LON TOKYO_GRADE TOKYO_WIND TOKYO_PRES TOKYO_R50_DIR TOKYO_R50_LONG TOKYO_R50_SHORT TOKYO_R30_DIR TOKYO_R30_LONG TOKYO_R30_SHORT TOKYO_LAND CMA_LAT CMA_LON CMA_CAT CMA_WIND CMA_PRES HKO_LAT HKO_LON HKO_CAT HKO_WIND HKO_PRES NEWDELHI_LAT NEWDELHI_LON NEWDELHI_GRADE NEWDELHI_WIND NEWDELHI_PRES NEWDELHI_CI NEWDELHI_DP NEWDELHI_POCI REUNION_LAT REUNION_LON REUNION_TYPE REUNION_WIND REUNION_PRES REUNION_TNUM REUNION_CI REUNION_RMW REUNION_R34_NE REUNION_R34_SE REUNION_R34_SW REUNION_R34_NW REUNION_R50_NE REUNION_R50_SE REUNION_R50_SW REUNION_R50_NW REUNION_R64_NE REUNION_R64_SE REUNION_R64_SW REUNION_R64_NW BOM_LAT BOM_LON BOM_TYPE BOM_WIND BOM_PRES BOM_TNUM BOM_CI BOM_RMW BOM_R34_NE BOM_R34_SE BOM_R34_SW BOM_R34_NW BOM_R50_NE BOM_R50_SE BOM_R50_SW BOM_R50_NW BOM_R64_NE BOM_R64_SE BOM_R64_SW BOM_R64_NW BOM_ROCI BOM_POCI BOM_EYE BOM_POS_METHOD BOM_PRES_METHOD NADI_LAT NADI_LON NADI_CAT NADI_WIND NADI_PRES WELLINGTON_LAT WELLINGTON_LON WELLINGTON_WIND WELLINGTON_PRES DS824_LAT DS824_LON DS824_STAGE DS824_WIND DS824_PRES TD9636_LAT TD9636_LON TD9636_STAGE TD9636_WIND TD9636_PRES TD9635_LAT TD9635_LON TD9635_WIND TD9635_PRES TD9635_ROCI NEUMANN_LAT NEUMANN_LON NEUMANN_CLASS NEUMANN_WIND NEUMANN_PRES MLC_LAT MLC_LON MLC_CLASS MLC_WIND MLC_PRES USA_GUST BOM_GUST BOM_GUST_PER REUNION_GUST REUNION_GUST_PER USA_SEAHGT USA_SEARAD_NE USA_SEARAD_SE USA_SEARAD_SW USA_SEARAD_NW STORM_SPEED STORM_DIR
1945110N09160 1945 22 WP MM ANN 1945-04-19 12:00:00 TS 9.50000 160.300 main 1704 1692 O________OOO__ jtwc_wp WP011945 9.50000 160.300 25 -1 9.50000 160.300 TC 25 9.50000 160.300 1 25 9.50000 160.300 25 1004 240 4 284
1945110N09160 1945 22 WP MM ANN 1945-04-19 15:00:00 TS 9.55082 160.098 main 1701 1690 P________PPP__ WP011945 9.56255 160.075 27 -1 9.56255 160.075 TC 27 9.51563 160.169 1 27 9.56255 160.075 27 1003 240 4 283
1945110N09160 1945 22 WP MM ANN 1945-04-19 18:00:00 TS 9.58375 159.932 main 1690 1684 O________OPO__ jtwc_wp WP011945 9.60000 159.900 30 -1 9.60000 159.900 TC 30 9.53499 160.030 1 30 9.60000 159.900 30 1002 240 3 278
1945110N09160 1945 22 WP MM ANN 1945-04-19 21:00:00 TS 9.59044 159.819 main 1684 1678 P________PPP__ WP011945 9.59996 159.800 32 -1 9.59996 159.800 TC 32 9.56186 159.876 1 32 9.59996 159.800 32 1001 270 2 274
1945110N09160 1945 22 WP MM ANN 1945-04-20 00:00:00 TS 9.60000 159.700 main 1678 1667 O________OOO__ jtwc_wp WP011945 9.60000 159.700 35 0 9.60000 159.700 TC 35 9.60000 159.700 2 35 9.60000 159.700 35 1001 300 3 280
1945110N09160 1945 22 WP MM ANN 1945-04-20 03:00:00 TS 9.64461 159.516 main 1667 1665 P________PPP__ WP011945 9.64250 159.523 37 0 9.64250 159.523 TC 37 9.65096 159.497 2 37 9.64250 159.523 37 1000 330 4 284
1945110N09160 1945 22 WP MM ANN 1945-04-20 06:00:00 TS 9.70188 159.293 main 1665 1653 O________OPO__ jtwc_wp WP011945 9.70000 159.300 40 0 9.70000 159.300 TC 40 9.70752 159.273 2 40 9.70000 159.300 40 1000 360 5 284
1945110N09160 1945 22 WP MM ANN 1945-04-20 09:00:00 TS 9.75820 159.052 main 1663 1646 P________PPP__ WP011945 9.75750 159.058 42 0 9.75750 159.058 TC 42 9.76032 159.037 2 42 9.75750 159.058 42 999 360 5 281
1945110N09160 1945 22 WP MM ANN 1945-04-20 12:00:00 TS 9.80000 158.800 main 1646 1636 O________OOO__ jtwc_wp WP011945 9.80000 158.800 45 0 9.80000 158.800 TC 45 9.80000 158.800 2 45 9.80000 158.800 45 998 360 5 276
1945110N09160 1945 22 WP MM ANN 1945-04-20 15:00:00 TS 9.80718 158.551 main 1636 1620 P________PPP__ WP011945 9.80750 158.542 45 0 9.80750 158.542 TC 45 9.80621 158.575 2 46 9.80750 158.542 45 997 390 5 270
1945110N09160 1945 22 WP MM ANN 1945-04-20 18:00:00 TS 9.79998 158.312 main 1620 1610 O________OPO__ jtwc_wp WP011945 9.80000 158.300 45 0 9.80000 158.300 TC 45 9.79994 158.350 2 47 9.80000 158.300 45 997 420 4 268
1945110N09160 1945 22 WP MM ANN 1945-04-20 21:00:00 TS 9.79277 158.106 main 1610 1600 P________PPP__ WP011945 9.79246 158.100 47 0 9.79246 158.100 TC 47 9.79371 158.125 2 48 9.79246 158.100 47 996 450 4 270
1945110N09160 1945 22 WP MM ANN 1945-04-21 00:00:00 TS 9.80000 157.900 main 1600 1590 O________OOO__ jtwc_wp WP011945 9.80000 157.900 50 0 9.80000 157.900 TC 50 9.80000 157.900 2 50 9.80000 157.900 50 996 480 4 276
1945110N09160 1945 22 WP MM ANN 1945-04-21 03:00:00 TS 9.84178 157.659 main 1590 1585 P________PPP__ WP011945 9.84251 157.650 50 0 9.84251 157.650 TC 50 9.83958 157.687 2 50 9.84251 157.650 50 996 450 5 282
1945110N09160 1945 22 WP MM ANN 1945-04-21 06:00:00 TS 9.89809 157.418 main 1585 1575 O________OPO__ jtwc_wp WP011945 9.90000 157.400 50 0 9.90000 157.400 TC 50 9.89234 157.473 2 50 9.90000 157.400 50 996 420 5 284
1945110N09160 1945 22 WP MM ANN 1945-04-21 09:00:00 TS 9.95533 157.212 main 1585 1575 P________PPP__ WP011945 9.95746 157.200 50 0 9.95746 157.200 TC 50 9.94894 157.247 2 50 9.95746 157.200 50 995 390 4 284
1945110N09160 1945 22 WP MM ANN 1945-04-21 12:00:00 TS 10.0000 157.000 main 1575 1566 O________OOO__ jtwc_wp WP011945 10.0000 157.000 50 0 10.0000 157.000 TC 50 10.0000 157.000 2 50 10.0000 157.000 50 995 360 4 277
1945110N09160 1945 22 WP MM ANN 1945-04-21 15:00:00 TS 10.0080 156.761 main 1566 1552 P________PPP__ WP011945 9.99996 156.772 45 0 9.99996 156.772 TC 45 10.0322 156.726 2 47 9.99996 156.772 45 995 360 5 272
1945110N09160 1945 22 WP MM ANN 1945-04-21 18:00:00 TS 10.0144 156.482 main 1552 1539 O________OPO__ jtwc_wp WP011945 10.0000 156.500 40 0 10.0000 156.500 TC 40 10.0575 156.430 2 45 10.0000 156.500 40 996 360 6 274
1945110N09160 1945 22 WP MM ANN 1945-04-21 21:00:00 TS 10.0516 156.154 main 1549 1533 P________PPP__ WP011945 10.0425 156.165 40 0 10.0425 156.165 TC 40 10.0790 156.119 2 42 10.0425 156.165 40 996 360 7 277
1945110N09160 1945 22 WP MM ANN 1945-04-22 00:00:00 TS 10.1000 155.800 main 1533 1522 O________OOO__ jtwc_wp WP011945 10.1000 155.800 40 0 10.1000 155.800 TC 40 10.1000 155.800 2 40 10.1000 155.800 40 996 360 7 278
1945110N09160 1945 22 WP MM ANN 1945-04-22 03:00:00 TS 10.1484 155.446 main 1518 1518 P________PPP__ WP011945 10.1575 155.443 37 0 10.1575 155.443 TC 37 10.1210 155.458 2 38 10.1575 155.443 37 996 360 7 277
1945110N09160 1945 22 WP MM ANN 1945-04-22 06:00:00 TS 10.1857 155.103 main 1518 1508 O________OPO__ jtwc_wp WP011945 10.2000 155.100 35 0 10.2000 155.100 TC 35 10.1426 155.112 2 37 10.2000 155.100 35 997 360 7 274
1945110N09160 1945 22 WP MM ANN 1945-04-22 09:00:00 TS 10.1920 154.774 main 1508 1499 P________PPP__ WP011945 10.2000 154.770 35 0 10.2000 154.770 TC 35 10.1679 154.786 2 36 10.2000 154.770 35 997 360 6 271
1945110N09160 1945 22 WP MM ANN 1945-04-22 12:00:00 TS 10.2000 154.500 main 1499 1493 O________OOO__ jtwc_wp WP011945 10.2000 154.500 35 0 10.2000 154.500 TC 35 10.2000 154.500 2 35 10.2000 154.500 35 998 360 4 276
1945110N09160 1945 22 WP MM ANN 1945-04-22 15:00:00 TS 10.2425 154.323 main 1493 1493 P________PPP__ WP011945 10.2424 154.335 35 0 10.2424 154.335 TC 35 10.2426 154.286 2 35 10.2424 154.335 35 998 360 3 287
1945110N09160 1945 22 WP MM ANN 1945-04-22 18:00:00 TS 10.2981 154.178 main 1501 1496 O________OPO__ jtwc_wp WP011945 10.3000 154.200 35 0 10.3000 154.200 TC 35 10.2922 154.112 2 35 10.3000 154.200 35 998 360 3 288
1945110N09160 1945 22 WP MM ANN 1945-04-22 21:00:00 TS 10.3489 153.995 main 1496 1496 P________PPP__ WP011945 10.3500 154.008 35 0 10.3500 154.008 TC 35 10.3458 153.958 2 35 10.3500 154.008 35 998 390 4 285
1945110N09160 1945 22 WP MM ANN 1945-04-23 00:00:00 TS 10.4000 153.800 main 1502 1498 O________OOO__ jtwc_wp WP011945 10.4000 153.800 35 0 10.4000 153.800 TC 35 10.4000 153.800 2 35 10.4000 153.800 35 998 420 4 284
1945110N09160 1945 22 WP MM ANN 1945-04-23 03:00:00 TS 10.4459 153.604 main 1498 1498 P________PPP__ WP011945 10.4500 153.600 32 -1 10.4500 153.600 TC 32 10.4337 153.615 2 33 10.4500 153.600 32 998 420 4 283
1945110N09160 1945 22 WP MM ANN 1945-04-23 06:00:00 TS 10.4925 153.406 main 1504 1500 O________OPO__ jtwc_wp WP011945 10.5000 153.400 30 -1 10.5000 153.400 TC 30 10.4699 153.422 2 32 10.5000 153.400 30 998 420 4 282
1945110N09160 1945 22 WP MM ANN 1945-04-23 09:00:00 TS 10.5259 153.216 main 1500 1499 P________PPP__ WP011945 10.5275 153.215 30 -1 10.5275 153.215 TC 30 10.5212 153.218 2 31 10.5275 153.215 30 998 420 4 285
1945110N09160 1945 22 WP MM ANN 1945-04-23 12:00:00 TS 10.6000 153.000 main 1508 1506 O________OOO__ jtwc_wp WP011945 10.6000 153.000 30 -1 10.6000 153.000 TC 30 10.6000 153.000 1 30 10.6000 153.000 30 999 420 6 297
1945110N09160 1945 22 WP MM ANN 1945-04-23 15:00:00 TS 10.7727 152.716 main 1525 1524 P________PPP__ WP011945 10.7925 152.700 30 -1 10.7925 152.700 TC 30 10.7131 152.764 1 30 10.7925 152.700 30 999 420 7 303
1945110N09160 1945 22 WP MM ANN 1945-04-23 18:00:00 TS 10.9637 152.429 main 1544 1542 O________OPO__ jtwc_wp WP011945 11.0000 152.400 30 -1 11.0000 152.400 TC 30 10.8550 152.515 1 30 11.0000 152.400 30 1000 420 6 302
1945110N09160 1945 22 WP MM ANN 1945-04-23 21:00:00 TS 11.0798 152.209 main 1552 1551 P________PPP__ WP011945 11.0999 152.192 30 -1 11.0999 152.192 TC 30 11.0194 152.258 1 30 11.0999 152.192 30 1000 450 5 299
1945110N09160 1945 22 WP MM ANN 1945-04-24 00:00:00 TS 11.2000 152.000 main 1562 1561 O________OOO__ jtwc_wp WP011945 11.2000 152.000 30 -1 11.2000 152.000 TC 30 11.2000 152.000 1 30 11.2000 152.000 30 1001 480 5 304
1945110N09160 1945 22 WP MM ANN 1945-04-24 03:00:00 TS 11.3801 151.754 main 1582 1582 P________PPP__ WP011945 11.3850 151.758 30 -1 11.3850 151.758 TC 30 11.3653 151.742 1 30 11.3850 151.758 30 1001 390 6 308
1945110N09160 1945 22 WP MM ANN 1945-04-24 06:00:00 TS 11.5869 151.496 main 1600 1597 O________OPO__ jtwc_wp WP011945 11.6000 151.500 30 -1 11.6000 151.500 TC 30 11.5475 151.485 1 30 11.6000 151.500 30 1002 300 6 308
1945110N09160 1945 22 WP MM ANN 1945-04-24 09:00:00 TS 11.7721 151.241 main 1613 1613 P________PPP__ WP011945 11.7775 151.242 30 -1 11.7775 151.242 TC 30 11.7559 151.235 1 30 11.7775 151.242 30 1002 300 6 310
1945110N09160 1945 22 WP MM ANN 1945-04-24 12:00:00 TS 12.0000 151.000 main 1629 1629 O________OOO__ jtwc_wp WP011945 12.0000 151.000 30 -1 12.0000 151.000 TC 30 12.0000 151.000 1 30 12.0000 151.000 30 1002 300 7 321
1945110N09160 1945 22 WP MM ANN 1945-04-24 15:00:00 TS 12.3245 150.790 main 1656 1656 P________PPP__ WP011945 12.3350 150.792 30 -1 12.3350 150.792 TC 30 12.2930 150.782 1 30 12.3350 150.792 30 1002 300 8 330
1945110N09160 1945 22 WP MM ANN 1945-04-24 18:00:00 TS 12.6800 150.594 main 1695 1695 O________OPO__ jtwc_wp WP011945 12.7000 150.600 30 -1 12.7000 150.600 TC 30 12.6199 150.577 1 30 12.7000 150.600 30 1002 300 8 330
1945110N09160 1945 22 WP MM ANN 1945-04-24 21:00:00 TS 12.9961 150.396 main 1723 1723 P________PPP__ WP011945 13.0075 150.400 30 -1 13.0075 150.400 TC 30 12.9618 150.385 1 30 13.0075 150.400 30 1002 300 7 328
1945110N09160 1945 22 WP MM ANN 1945-04-25 00:00:00 TS 13.3000 150.200 main 1752 1752 O________OOO__ jtwc_wp WP011945 13.3000 150.200 30 -1 13.3000 150.200 TC 30 13.3000 150.200 1 30 13.3000 150.200 30 1003 300 7 327
1945110N09160 1945 22 WP MM ANN 1945-04-25 03:00:00 TS 13.6008 149.995 main 1782 1782 P________PPP__ WP011945 13.6000 149.992 27 -1 13.6000 149.992 TC 27 13.6031 150.002 1 28 13.6000 149.992 27 1003 330 7 327
1945110N09160 1945 22 WP MM ANN 1945-04-25 06:00:00 TS 13.9000 149.803 main 1811 1811 O________OPO__ jtwc_wp WP011945 13.9000 149.800 25 -1 13.9000 149.800 TC 25 13.9000 149.812 1 27 13.9000 149.800 25 1004 360 7 330
1945110N09160 1945 22 WP MM ANN 1945-04-25 09:00:00 TS 14.1992 149.637 main 1842 1842 P________PPP__ WP011945 14.2000 149.635 25 -1 14.2000 149.635 TC 25 14.1969 149.642 1 26 14.2000 149.635 25 1004 390 7 334
1945110N09160 1945 22 WP MM ANN 1945-04-25 12:00:00 TS 14.5000 149.500 main 1874 1874 O________OOO__ jtwc_wp WP011945 14.5000 149.500 25 -1 14.5000 149.500 TC 25 14.5000 149.500 1 25 14.5000 149.500 25 1005 420 7 338
1945110N09160 1945 22 WP MM ANN 1945-04-25 15:00:00 TS 14.7998 149.387 main 1906 1906 P________PPP__ WP011945 14.7925 149.385 25 -1 14.7925 149.385 TC 25 14.8218 149.392 1 25 14.7925 149.385 25 1005 420 6 343
1945110N09160 1945 22 WP MM ANN 1945-04-25 18:00:00 TS 15.1125 149.303 main 1938 1938 O________OPO__ jtwc_wp WP011945 15.1000 149.300 25 -1 15.1000 149.300 TC 25 15.1499 149.312 1 25 15.1000 149.300 25 1006 420 7 348
1945110N09160 1945 22 WP MM ANN 1945-04-25 21:00:00 TS 15.4570 149.245 main 1981 1981 P________PPP__ WP011945 15.4500 149.242 25 -1 15.4500 149.242 TC 25 15.4781 149.251 1 25 15.4500 149.242 25 1006 420 7 352
1945110N09160 1945 22 WP MM ANN 1945-04-26 00:00:00 TS 15.8000 149.200 main 2014 2014 O________OOO__ jtwc_wp WP011945 15.8000 149.200 25 -1 15.8000 149.200 TC 25 15.8000 149.200 1 25 15.8000 149.200 25 1006 420 7 352
1945110N09160 1945 22 WP MM ANN 1945-04-26 03:00:00 TS 16.1084 149.150 main 2048 2047 P________PPP__ WP011945 16.1075 149.150 22 -1 16.1075 149.150 TC 22 16.1110 149.150 1 23 16.1075 149.150 22 1006 390 6 351
1945110N09160 1945 22 WP MM ANN 1945-04-26 06:00:00 TS 16.4031 149.100 main 2080 2080 O________OPO__ jtwc_wp WP011945 16.4000 149.100 20 -1 16.4000 149.100 TC 20 16.4125 149.100 1 22 16.4000 149.100 20 1006 360 6 350
1945110N09160 1945 22 WP MM ANN 1945-04-26 09:00:00 TS 16.7001 149.050 main 2114 2113 P________PPP__ WP011945 16.6975 149.050 20 -1 16.6975 149.050 TC 20 16.7078 149.050 1 21 16.6975 149.050 20 1006 300 6 350
1945110N09160 1945 22 WP MM ANN 1945-04-26 12:00:00 TS 17.0000 149.000 main 2146 O________OOO__ jtwc_wp WP011945 17.0000 149.000 20 -1 17.0000 149.000 TC 20 17.0000 149.000 1 20 17.0000 149.000 20 1006 240 6 354

Digital Typhoon Data and Search

About IBTrACS Database

This database is a web-friendly format of International Best Track Archive for Climate Stewardship (IBTrACS), a global best track data archive curated by NOAA dating back to 1842.

Updated: 2021-11-26